Time;durP1;ratioP1;P1;durP2;ratioP2;P2;SDS_P1;SDS_P2;PMS_P1;PMS_P2;Temp;Humidity;BMP_temperature;BMP_pressure;BME280_temperature;BME280_humidity;BME280_pressure;Samples;Min_cycle;Max_cycle;Signal;HPM_P1;HPM_P2
2022/12/04 00:01:29;;;;;;;26.90;19.00;;;;;;;;;;5070624;28;20825;-74
2022/12/04 00:03:57;;;;;;;29.57;18.93;;;;;;;;;;5070708;28;20502;-74
2022/12/04 00:06:24;;;;;;;28.20;19.13;;;;;;;;;;5070487;28;21056;-74
2022/12/04 00:08:51;;;;;;;27.60;19.23;;;;;;;;;;5070786;28;20442;-74
2022/12/04 00:11:20;;;;;;;23.27;17.40;;;;;;;;;;5070887;28;20448;-73
2022/12/04 00:13:47;;;;;;;29.90;20.40;;;;;;;;;;5070274;28;20436;-75
2022/12/04 00:16:18;;;;;;;30.67;20.73;;;;;;;;;;5070578;28;20476;-75
2022/12/04 00:18:45;;;;;;;26.90;19.40;;;;;;;;;;5070983;28;20501;-73
2022/12/04 00:21:14;;;;;;;28.23;18.37;;;;;;;;;;5084814;28;20528;-75
2022/12/04 00:23:42;;;;;;;22.80;17.00;;;;;;;;;;5094414;28;20433;-73
2022/12/04 00:26:10;;;;;;;26.57;19.23;;;;;;;;;;5087445;28;20468;-74
2022/12/04 00:28:37;;;;;;;23.33;17.63;;;;;;;;;;5073663;28;20448;-74
2022/12/04 00:31:05;;;;;;;26.33;18.70;;;;;;;;;;5072873;28;20460;-75
2022/12/04 00:33:34;;;;;;;25.93;17.77;;;;;;;;;;5070681;28;21167;-75
2022/12/04 00:36:02;;;;;;;21.87;16.57;;;;;;;;;;5069654;28;20461;-74
2022/12/04 00:38:29;;;;;;;23.43;17.13;;;;;;;;;;5070281;28;20473;-75
2022/12/04 00:40:56;;;;;;;23.13;16.73;;;;;;;;;;5066284;28;20485;-74
2022/12/04 00:43:24;;;;;;;24.67;17.33;;;;;;;;;;5064038;28;20525;-76
2022/12/04 00:45:51;;;;;;;23.77;16.00;;;;;;;;;;5070269;28;20473;-74
2022/12/04 00:48:18;;;;;;;25.87;17.67;;;;;;;;;;5070636;28;20454;-74
2022/12/04 00:50:46;;;;;;;21.17;15.37;;;;;;;;;;5071415;28;20456;-76
2022/12/04 00:53:14;;;;;;;24.73;17.03;;;;;;;;;;5057752;28;20453;-75
2022/12/04 00:55:42;;;;;;;25.53;17.20;;;;;;;;;;5071993;28;20475;-74
2022/12/04 00:58:09;;;;;;;23.97;16.87;;;;;;;;;;5071217;28;20436;-75
2022/12/04 01:00:36;;;;;;;22.60;15.83;;;;;;;;;;5071415;28;20446;-74
2022/12/04 01:03:04;;;;;;;25.77;15.77;;;;;;;;;;5070516;28;20447;-75
2022/12/04 01:05:31;;;;;;;23.47;16.10;;;;;;;;;;5071383;28;20488;-74
2022/12/04 01:07:59;;;;;;;25.40;16.10;;;;;;;;;;5071541;28;20450;-75
2022/12/04 01:10:26;;;;;;;22.10;15.20;;;;;;;;;;5071217;28;20446;-75
2022/12/04 01:12:53;;;;;;;23.60;16.10;;;;;;;;;;5071850;28;20463;-76
2022/12/04 01:15:21;;;;;;;21.87;15.10;;;;;;;;;;5072587;28;20834;-76
2022/12/04 01:17:48;;;;;;;25.27;16.03;;;;;;;;;;5072550;28;20591;-74
2022/12/04 01:20:15;;;;;;;23.37;16.50;;;;;;;;;;5070433;28;20484;-74
2022/12/04 01:22:42;;;;;;;24.10;16.80;;;;;;;;;;5069372;28;20463;-75
2022/12/04 01:25:11;;;;;;;27.87;17.70;;;;;;;;;;5069481;28;20844;-73
2022/12/04 01:27:38;;;;;;;22.40;15.87;;;;;;;;;;5069868;28;20449;-74
2022/12/04 01:30:06;;;;;;;20.67;15.40;;;;;;;;;;5069468;28;20460;-73
2022/12/04 01:32:33;;;;;;;22.67;16.67;;;;;;;;;;5069242;28;20448;-75
2022/12/04 01:35:00;;;;;;;24.70;16.80;;;;;;;;;;5069705;28;20476;-74
2022/12/04 01:37:27;;;;;;;21.73;16.63;;;;;;;;;;5069565;28;20986;-75
2022/12/04 01:39:54;;;;;;;23.00;16.43;;;;;;;;;;5069961;28;20499;-76
2022/12/04 01:42:23;;;;;;;25.60;17.03;;;;;;;;;;5069971;28;20450;-76
2022/12/04 01:45:04;;;;;;;24.67;17.10;;;;;;;;;;5071920;28;20461;-73
2022/12/04 01:47:32;;;;;;;25.67;16.97;;;;;;;;;;5096303;28;20452;-74
2022/12/04 01:49:59;;;;;;;24.27;16.13;;;;;;;;;;5098455;28;20436;-73
2022/12/04 01:52:27;;;;;;;23.07;15.83;;;;;;;;;;5093476;28;20845;-73
2022/12/04 01:54:55;;;;;;;28.23;16.77;;;;;;;;;;5073240;28;20474;-74
2022/12/04 01:57:25;;;;;;;25.40;16.60;;;;;;;;;;5073218;28;20449;-74
2022/12/04 01:59:55;;;;;;;22.07;16.00;;;;;;;;;;5073210;28;20472;-74
2022/12/04 02:02:23;;;;;;;25.47;16.90;;;;;;;;;;5073845;28;20452;-74
2022/12/04 02:04:51;;;;;;;22.20;15.57;;;;;;;;;;5072793;28;20464;-74
2022/12/04 02:07:18;;;;;;;22.27;16.07;;;;;;;;;;5073112;28;20448;-75
2022/12/04 02:09:52;;;;;;;25.97;16.70;;;;;;;;;;5072654;28;20449;-75
2022/12/04 02:12:22;;;;;;;24.00;15.43;;;;;;;;;;5072790;28;20457;-75
2022/12/04 02:14:56;;;;;;;31.07;19.17;;;;;;;;;;5071932;28;20478;-74
2022/12/04 02:17:28;;;;;;;23.80;16.87;;;;;;;;;;5072940;28;20454;-76
2022/12/04 02:20:04;;;;;;;21.37;16.23;;;;;;;;;;5073028;28;20537;-73
2022/12/04 02:22:42;;;;;;;25.50;17.10;;;;;;;;;;5072505;28;20453;-75
2022/12/04 02:25:13;;;;;;;23.00;17.20;;;;;;;;;;5073239;28;20460;-75
2022/12/04 02:28:00;;;;;;;23.47;16.57;;;;;;;;;;5073861;28;20446;-75
2022/12/04 02:30:28;;;;;;;24.27;16.47;;;;;;;;;;5074744;28;20442;-73
2022/12/04 02:32:59;;;;;;;23.27;16.27;;;;;;;;;;5068883;28;20446;-75
2022/12/04 02:35:28;;;;;;;21.73;15.53;;;;;;;;;;5066808;28;20472;-75
2022/12/04 02:37:57;;;;;;;25.70;17.13;;;;;;;;;;5072602;28;20447;-74
2022/12/04 02:40:27;;;;;;;27.50;18.43;;;;;;;;;;5073425;28;20485;-75
2022/12/04 02:42:55;;;;;;;21.80;16.23;;;;;;;;;;5073085;28;20443;-74
2022/12/04 02:45:26;;;;;;;24.77;17.93;;;;;;;;;;5073542;28;20468;-75
2022/12/04 02:47:54;;;;;;;25.87;18.23;;;;;;;;;;5073858;28;20937;-75
2022/12/04 02:50:22;;;;;;;23.30;16.90;;;;;;;;;;5076784;28;20459;-74
2022/12/04 02:52:51;;;;;;;26.43;18.20;;;;;;;;;;5078373;28;20508;-74
2022/12/04 02:55:21;;;;;;;25.17;16.97;;;;;;;;;;5096255;28;20449;-74
2022/12/04 02:57:51;;;;;;;23.53;16.80;;;;;;;;;;5093645;28;20445;-73
2022/12/04 03:00:19;;;;;;;23.07;16.77;;;;;;;;;;5072052;28;21020;-72
2022/12/04 03:02:52;;;;;;;22.27;16.40;;;;;;;;;;5070826;28;20445;-74
2022/12/04 03:05:23;;;;;;;26.90;17.50;;;;;;;;;;5071660;28;20543;-73
2022/12/04 03:07:53;;;;;;;29.03;19.97;;;;;;;;;;5071691;28;20840;-75
2022/12/04 03:10:24;;;;;;;25.10;18.27;;;;;;;;;;5071913;28;20441;-74
2022/12/04 03:12:53;;;;;;;24.37;18.20;;;;;;;;;;5071273;28;20872;-73
2022/12/04 03:15:22;;;;;;;22.10;17.33;;;;;;;;;;5051615;28;20471;-75
2022/12/04 03:17:54;;;;;;;23.80;17.20;;;;;;;;;;5051754;28;20449;-73
2022/12/04 03:20:22;;;;;;;23.00;16.67;;;;;;;;;;5052308;28;20540;-73
2022/12/04 03:22:52;;;;;;;24.50;18.90;;;;;;;;;;5051019;28;20446;-74
2022/12/04 03:25:19;;;;;;;24.90;18.10;;;;;;;;;;5051693;28;20540;-75
2022/12/04 03:27:50;;;;;;;24.37;17.53;;;;;;;;;;5050960;28;21014;-74
2022/12/04 03:30:20;;;;;;;24.97;18.43;;;;;;;;;;5051614;28;20438;-74
2022/12/04 03:32:49;;;;;;;23.40;18.43;;;;;;;;;;5050671;28;20530;-73
2022/12/04 03:35:20;;;;;;;26.13;18.80;;;;;;;;;;5051153;28;20463;-74
2022/12/04 03:37:55;;;;;;;28.10;19.13;;;;;;;;;;5051113;28;20546;-75
2022/12/04 03:40:24;;;;;;;24.90;18.83;;;;;;;;;;5064981;28;20477;-74
2022/12/04 03:42:53;;;;;;;25.47;20.10;;;;;;;;;;5070211;28;20443;-73
2022/12/04 03:45:22;;;;;;;24.37;18.67;;;;;;;;;;5070875;28;20544;-74
2022/12/04 03:47:53;;;;;;;25.87;19.90;;;;;;;;;;5071291;28;20806;-75
2022/12/04 03:50:25;;;;;;;25.87;19.60;;;;;;;;;;5070733;28;20964;-75
2022/12/04 03:52:58;;;;;;;27.27;19.60;;;;;;;;;;5069889;28;20445;-73
2022/12/04 03:55:27;;;;;;;29.73;20.00;;;;;;;;;;5070510;28;20456;-73
2022/12/04 03:57:57;;;;;;;30.53;20.37;;;;;;;;;;5070517;28;20791;-75
2022/12/04 04:00:24;;;;;;;27.43;19.27;;;;;;;;;;5070566;28;20486;-74
2022/12/04 04:02:52;;;;;;;30.00;20.40;;;;;;;;;;5070696;28;20483;-74
2022/12/04 04:05:20;;;;;;;27.97;19.87;;;;;;;;;;5070367;28;20473;-75
2022/12/04 04:07:51;;;;;;;28.87;20.70;;;;;;;;;;5070610;28;20448;-74
2022/12/04 04:10:20;;;;;;;30.13;20.57;;;;;;;;;;5070750;28;20446;-75
2022/12/04 04:24:13;;;;;;;25.93;20.17;;;;;;;;;;5086274;28;20449;-74
2022/12/04 04:24:15;;;;;;;25.83;19.50;;;;;;;;;;5050179;28;20445;-73
2022/12/04 04:26:43;;;;;;;26.47;19.50;;;;;;;;;;5051060;28;20439;-74
2022/12/04 04:29:10;;;;;;;27.60;19.43;;;;;;;;;;5050595;28;20443;-73
2022/12/04 04:31:41;;;;;;;32.73;20.57;;;;;;;;;;5050353;28;20444;-74
2022/12/04 04:34:12;;;;;;;32.33;21.40;;;;;;;;;;5063615;28;20451;-73
2022/12/04 04:36:43;;;;;;;28.20;19.40;;;;;;;;;;5070391;28;20445;-74
2022/12/04 04:39:17;;;;;;;28.03;20.10;;;;;;;;;;5070291;28;20824;-73
2022/12/04 04:41:47;;;;;;;28.20;19.03;;;;;;;;;;5070505;28;20442;-74
2022/12/04 04:44:18;;;;;;;26.17;17.70;;;;;;;;;;5069439;28;20433;-74
2022/12/04 04:46:47;;;;;;;24.30;17.90;;;;;;;;;;5070165;28;20460;-73
2022/12/04 04:49:15;;;;;;;28.20;18.13;;;;;;;;;;5070231;28;20435;-75
2022/12/04 04:51:43;;;;;;;26.57;18.43;;;;;;;;;;5070464;28;20450;-75
2022/12/04 04:54:14;;;;;;;26.40;19.73;;;;;;;;;;5069654;28;20456;-74
2022/12/04 04:56:42;;;;;;;26.70;19.23;;;;;;;;;;5070426;28;20472;-73
2022/12/04 04:59:09;;;;;;;25.97;18.53;;;;;;;;;;5069879;28;20442;-75
2022/12/04 05:01:36;;;;;;;26.50;18.70;;;;;;;;;;5070327;28;20437;-74
2022/12/04 05:04:03;;;;;;;25.47;17.70;;;;;;;;;;5069602;28;20448;-74
2022/12/04 05:06:30;;;;;;;22.90;16.43;;;;;;;;;;5070561;28;20831;-76
2022/12/04 05:08:57;;;;;;;23.80;17.47;;;;;;;;;;5069949;28;20526;-74
2022/12/04 05:11:26;;;;;;;23.40;17.10;;;;;;;;;;5070905;28;20442;-73
2022/12/04 05:13:53;;;;;;;25.50;18.00;;;;;;;;;;5069811;28;20446;-74
2022/12/04 05:16:20;;;;;;;23.53;17.03;;;;;;;;;;5070422;28;20468;-73
2022/12/04 05:21:28;;;;;;;22.63;15.70;;;;;;;;;;5091453;28;20477;-73
2022/12/04 05:23:55;;;;;;;25.77;18.00;;;;;;;;;;5088859;28;20440;-74
2022/12/04 05:26:22;;;;;;;23.47;17.60;;;;;;;;;;5084160;28;20464;-73
2022/12/04 05:28:51;;;;;;;24.30;17.80;;;;;;;;;;5079475;28;20505;-73
2022/12/04 05:31:18;;;;;;;25.23;17.17;;;;;;;;;;5079229;28;20450;-74
2022/12/04 05:33:45;;;;;;;23.70;17.00;;;;;;;;;;5075667;28;21004;-74
2022/12/04 05:36:13;;;;;;;21.90;15.50;;;;;;;;;;5075067;28;20463;-74
2022/12/04 05:38:40;;;;;;;23.97;17.27;;;;;;;;;;5073973;28;20955;-74
2022/12/04 05:41:07;;;;;;;24.17;17.93;;;;;;;;;;5074364;28;20484;-74
2022/12/04 05:43:34;;;;;;;28.80;18.13;;;;;;;;;;5075531;28;20446;-74
2022/12/04 05:46:03;;;;;;;24.63;17.93;;;;;;;;;;5076389;28;20468;-74
2022/12/04 05:48:30;;;;;;;26.43;16.90;;;;;;;;;;5075910;28;20833;-74
2022/12/04 05:50:57;;;;;;;26.50;18.80;;;;;;;;;;5075247;28;20451;-74
2022/12/04 05:53:24;;;;;;;22.90;16.77;;;;;;;;;;5074822;28;20450;-73
2022/12/04 05:55:55;;;;;;;27.17;18.47;;;;;;;;;;5073134;28;20468;-74
2022/12/04 05:58:22;;;;;;;22.87;16.13;;;;;;;;;;5073615;28;20437;-75
2022/12/04 06:00:49;;;;;;;23.60;16.93;;;;;;;;;;5072987;28;20505;-74
2022/12/04 06:03:17;;;;;;;23.03;17.33;;;;;;;;;;5074067;28;20456;-74
2022/12/04 06:05:44;;;;;;;27.20;17.37;;;;;;;;;;5073863;28;20914;-74
2022/12/04 06:08:12;;;;;;;25.30;16.87;;;;;;;;;;5072554;28;20983;-75
2022/12/04 06:10:39;;;;;;;25.17;15.73;;;;;;;;;;5072749;28;20446;-74
2022/12/04 06:13:06;;;;;;;25.37;17.60;;;;;;;;;;5072631;28;20453;-73
2022/12/04 06:15:36;;;;;;;21.57;15.90;;;;;;;;;;5073063;28;20465;-73
2022/12/04 06:18:03;;;;;;;22.13;16.00;;;;;;;;;;5074275;28;20443;-73
2022/12/04 06:20:32;;;;;;;23.03;16.87;;;;;;;;;;5076823;28;20471;-74
2022/12/04 06:22:59;;;;;;;21.87;16.50;;;;;;;;;;5093965;28;20456;-74
2022/12/04 06:25:26;;;;;;;25.20;17.47;;;;;;;;;;5094294;28;20472;-74
2022/12/04 06:27:53;;;;;;;27.80;18.10;;;;;;;;;;5095642;28;20443;-72
2022/12/04 06:30:20;;;;;;;26.83;18.40;;;;;;;;;;5086272;28;20443;-73
2022/12/04 06:32:47;;;;;;;24.60;18.07;;;;;;;;;;5063642;28;20455;-75
2022/12/04 06:35:15;;;;;;;22.83;16.63;;;;;;;;;;5066410;28;20467;-74
2022/12/04 06:37:43;;;;;;;22.63;16.50;;;;;;;;;;5070948;28;20432;-74
2022/12/04 06:40:10;;;;;;;23.30;17.27;;;;;;;;;;5087788;28;20454;-73
2022/12/04 06:42:38;;;;;;;24.73;17.00;;;;;;;;;;5097839;28;20444;-74
2022/12/04 06:45:05;;;;;;;23.80;16.37;;;;;;;;;;5077580;28;21173;-74
2022/12/04 06:47:32;;;;;;;21.40;16.03;;;;;;;;;;5077015;28;20466;-74
2022/12/04 06:49:59;;;;;;;23.30;17.10;;;;;;;;;;5072484;28;20913;-73
2022/12/04 06:52:26;;;;;;;24.07;17.60;;;;;;;;;;5073844;28;20439;-73
2022/12/04 06:54:55;;;;;;;23.03;15.60;;;;;;;;;;5073501;28;20475;-74
2022/12/04 06:57:22;;;;;;;23.63;17.53;;;;;;;;;;5073151;28;20442;-75
2022/12/04 06:59:49;;;;;;;21.93;15.87;;;;;;;;;;5073020;28;20993;-75
2022/12/04 07:02:16;;;;;;;25.53;18.27;;;;;;;;;;5073238;28;20448;-74
2022/12/04 07:04:44;;;;;;;22.57;15.87;;;;;;;;;;5071630;28;20443;-75
2022/12/04 07:07:11;;;;;;;21.80;17.17;;;;;;;;;;5073056;28;20463;-74
2022/12/04 07:09:38;;;;;;;23.67;16.83;;;;;;;;;;5072467;28;20443;-74
2022/12/04 07:12:07;;;;;;;24.67;17.40;;;;;;;;;;5072384;28;20444;-74
2022/12/04 07:14:34;;;;;;;25.33;18.20;;;;;;;;;;5071118;28;20838;-73
2022/12/04 07:17:01;;;;;;;25.20;18.30;;;;;;;;;;5071997;28;20442;-75
2022/12/04 07:19:28;;;;;;;21.90;15.83;;;;;;;;;;5071834;28;20455;-75
2022/12/04 07:21:55;;;;;;;27.20;16.70;;;;;;;;;;5071582;28;20483;-75
2022/12/04 07:24:22;;;;;;;25.67;16.90;;;;;;;;;;5071038;28;20452;-75
2022/12/04 07:26:50;;;;;;;25.23;17.43;;;;;;;;;;5071888;28;21020;-74
2022/12/04 07:29:18;;;;;;;23.13;16.63;;;;;;;;;;5071824;28;20465;-74
2022/12/04 07:31:45;;;;;;;25.93;17.37;;;;;;;;;;5071424;28;20444;-75
2022/12/04 07:34:12;;;;;;;27.20;17.57;;;;;;;;;;5070807;28;20457;-74
2022/12/04 07:36:40;;;;;;;28.67;18.53;;;;;;;;;;5071735;28;20806;-73
2022/12/04 07:39:07;;;;;;;23.47;16.57;;;;;;;;;;5071971;28;20444;-74
2022/12/04 07:41:34;;;;;;;24.83;17.63;;;;;;;;;;5071506;28;20468;-77
2022/12/04 07:44:01;;;;;;;25.10;17.97;;;;;;;;;;5070427;28;20453;-75
2022/12/04 07:46:29;;;;;;;24.10;17.00;;;;;;;;;;5070807;28;20474;-76
2022/12/04 07:48:57;;;;;;;24.73;17.30;;;;;;;;;;5070980;28;20501;-74
2022/12/04 07:51:25;;;;;;;25.13;16.73;;;;;;;;;;5070960;28;20961;-73
2022/12/04 07:53:53;;;;;;;26.07;16.77;;;;;;;;;;5065677;28;20447;-74
2022/12/04 07:56:20;;;;;;;27.80;19.20;;;;;;;;;;5065457;28;21801;-74
2022/12/04 07:58:47;;;;;;;26.33;17.73;;;;;;;;;;5071599;28;20447;-74
2022/12/04 08:01:16;;;;;;;23.87;16.70;;;;;;;;;;5071083;28;20838;-73
2022/12/04 08:03:45;;;;;;;24.50;17.40;;;;;;;;;;5070362;28;20462;-75
2022/12/04 08:06:13;;;;;;;24.27;17.30;;;;;;;;;;5070578;28;20471;-73
2022/12/04 08:08:40;;;;;;;25.40;17.23;;;;;;;;;;5071061;28;20459;-73
2022/12/04 08:11:07;;;;;;;24.57;17.20;;;;;;;;;;5070598;28;20442;-74
2022/12/04 08:13:34;;;;;;;22.70;16.13;;;;;;;;;;5070212;28;20445;-73
2022/12/04 08:16:02;;;;;;;26.17;16.40;;;;;;;;;;5070709;28;20975;-74
2022/12/04 08:18:29;;;;;;;26.23;18.27;;;;;;;;;;5070782;28;20467;-74
2022/12/04 08:21:04;;;;;;;21.43;16.57;;;;;;;;;;5069620;28;20477;-74
2022/12/04 08:23:31;;;;;;;24.50;17.20;;;;;;;;;;5070012;28;20908;-73
2022/12/04 08:25:59;;;;;;;21.37;15.60;;;;;;;;;;5071202;28;20465;-75
2022/12/04 08:28:26;;;;;;;23.50;15.60;;;;;;;;;;5074193;28;20447;-75
2022/12/04 08:30:53;;;;;;;19.63;15.10;;;;;;;;;;5074075;28;20887;-74
2022/12/04 08:33:20;;;;;;;23.97;16.57;;;;;;;;;;5075149;28;20478;-75
2022/12/04 08:35:47;;;;;;;24.80;17.17;;;;;;;;;;5072117;28;20513;-74
2022/12/04 08:38:15;;;;;;;22.13;17.23;;;;;;;;;;5071448;28;20458;-74
2022/12/04 08:40:43;;;;;;;20.07;15.10;;;;;;;;;;5071032;28;20558;-76
2022/12/04 08:43:10;;;;;;;20.47;14.57;;;;;;;;;;5071749;28;20458;-73
2022/12/04 08:45:37;;;;;;;19.83;15.37;;;;;;;;;;5072037;28;20471;-73
2022/12/04 08:48:04;;;;;;;22.27;14.40;;;;;;;;;;5073170;28;20438;-74
2022/12/04 08:50:31;;;;;;;19.90;14.70;;;;;;;;;;5073981;28;20451;-74
2022/12/04 08:52:58;;;;;;;22.73;15.07;;;;;;;;;;5075948;28;20555;-74
2022/12/04 08:55:26;;;;;;;20.40;15.20;;;;;;;;;;5072413;28;20475;-74
2022/12/04 08:57:54;;;;;;;20.47;15.33;;;;;;;;;;5075420;28;21170;-77
2022/12/04 09:00:21;;;;;;;20.27;14.60;;;;;;;;;;5074905;28;20442;-73
2022/12/04 09:02:49;;;;;;;22.07;15.40;;;;;;;;;;5074835;28;20518;-73
2022/12/04 09:05:16;;;;;;;19.63;15.43;;;;;;;;;;5082057;28;20472;-75
2022/12/04 09:07:43;;;;;;;21.13;14.40;;;;;;;;;;5099669;28;20431;-74
2022/12/04 09:10:11;;;;;;;23.27;15.43;;;;;;;;;;5099711;28;20454;-73
2022/12/04 09:12:39;;;;;;;21.47;16.37;;;;;;;;;;5093167;28;20754;-75
2022/12/04 09:15:07;;;;;;;23.67;15.67;;;;;;;;;;5060216;28;20467;-74
2022/12/04 09:17:35;;;;;;;20.67;16.80;;;;;;;;;;5055440;28;20453;-75
2022/12/04 09:20:02;;;;;;;21.20;16.03;;;;;;;;;;5058983;28;20486;-75
2022/12/04 09:22:29;;;;;;;21.63;16.27;;;;;;;;;;5063909;28;20494;-74
2022/12/04 09:24:56;;;;;;;19.83;15.97;;;;;;;;;;5086057;28;20456;-74
2022/12/04 09:27:23;;;;;;;21.67;16.23;;;;;;;;;;5099148;28;20501;-75
2022/12/04 09:29:52;;;;;;;24.63;15.80;;;;;;;;;;5096282;28;20440;-72
2022/12/04 09:32:19;;;;;;;21.53;15.63;;;;;;;;;;5092425;28;20426;-73
2022/12/04 09:34:47;;;;;;;23.40;15.77;;;;;;;;;;5094020;28;20476;-75
2022/12/04 09:37:16;;;;;;;24.30;16.33;;;;;;;;;;5094363;28;20458;-74
2022/12/04 09:39:43;;;;;;;24.97;17.20;;;;;;;;;;5094103;28;20949;-74
2022/12/04 09:42:26;;;;;;;25.07;18.00;;;;;;;;;;5094545;28;20467;-75
2022/12/04 09:44:58;;;;;;;20.93;16.33;;;;;;;;;;5094059;28;20470;-75
2022/12/04 09:47:27;;;;;;;22.27;16.70;;;;;;;;;;5094812;28;20504;-76
2022/12/04 09:49:57;;;;;;;23.07;17.67;;;;;;;;;;5094185;28;20442;-75
2022/12/04 09:52:36;;;;;;;24.23;17.93;;;;;;;;;;5094016;28;20446;-73
2022/12/04 09:55:04;;;;;;;27.03;17.10;;;;;;;;;;5094024;28;20453;-75
2022/12/04 09:57:35;;;;;;;21.87;16.90;;;;;;;;;;5093870;28;20450;-75
2022/12/04 10:00:05;;;;;;;26.47;17.40;;;;;;;;;;5093788;28;20837;-75
2022/12/04 10:02:37;;;;;;;24.50;17.70;;;;;;;;;;5104520;28;20482;-74
2022/12/04 10:05:04;;;;;;;23.50;16.17;;;;;;;;;;5114774;28;20481;-73
2022/12/04 10:07:33;;;;;;;26.20;17.00;;;;;;;;;;5114566;28;20448;-74
2022/12/04 10:10:03;;;;;;;24.60;17.30;;;;;;;;;;5112987;28;20937;-75
2022/12/04 10:12:35;;;;;;;27.30;18.00;;;;;;;;;;5096464;28;20447;-75
2022/12/04 10:15:09;;;;;;;29.43;20.07;;;;;;;;;;5077101;28;20467;-73
2022/12/04 10:17:41;;;;;;;28.30;18.13;;;;;;;;;;5074765;28;20428;-76
2022/12/04 10:20:17;;;;;;;27.33;19.10;;;;;;;;;;5074113;28;20461;-76
2022/12/04 10:22:51;;;;;;;26.60;18.80;;;;;;;;;;5072469;28;20584;-74
2022/12/04 10:25:20;;;;;;;24.90;18.27;;;;;;;;;;5073657;28;20459;-75
2022/12/04 10:27:49;;;;;;;26.60;18.00;;;;;;;;;;5063828;28;20452;-73
2022/12/04 10:30:20;;;;;;;25.60;17.77;;;;;;;;;;5073970;28;20455;-74
2022/12/04 10:32:48;;;;;;;29.43;17.57;;;;;;;;;;5072440;28;20439;-75
2022/12/04 10:35:18;;;;;;;25.70;19.10;;;;;;;;;;5072940;28;20464;-75
2022/12/04 10:37:46;;;;;;;28.33;19.80;;;;;;;;;;5071409;28;20454;-74
2022/12/04 10:40:14;;;;;;;26.23;18.13;;;;;;;;;;5075008;28;20455;-74
2022/12/04 10:42:44;;;;;;;28.50;19.30;;;;;;;;;;5073064;28;21257;-75
2022/12/04 10:45:13;;;;;;;27.57;19.30;;;;;;;;;;5074349;28;20534;-74
2022/12/04 10:47:44;;;;;;;26.43;18.90;;;;;;;;;;5068023;28;20512;-76
2022/12/04 10:50:15;;;;;;;26.53;16.87;;;;;;;;;;5072245;28;20430;-77
2022/12/04 10:52:42;;;;;;;25.67;18.97;;;;;;;;;;5068513;28;20437;-76
2022/12/04 10:55:09;;;;;;;28.50;19.77;;;;;;;;;;5066627;28;20454;-76
2022/12/04 10:57:38;;;;;;;28.73;19.30;;;;;;;;;;5058055;28;20453;-74
2022/12/04 11:00:23;;;;;;;27.50;19.27;;;;;;;;;;5067611;28;21013;-74
2022/12/04 11:02:52;;;;;;;27.07;18.57;;;;;;;;;;5063884;28;21012;-75
2022/12/04 11:05:24;;;;;;;26.60;19.03;;;;;;;;;;5065772;28;20472;-74
2022/12/04 11:07:53;;;;;;;27.70;18.13;;;;;;;;;;5068438;28;20439;-76
2022/12/04 11:10:22;;;;;;;28.27;20.03;;;;;;;;;;5077813;28;20457;-76
2022/12/04 11:12:54;;;;;;;26.60;19.00;;;;;;;;;;5082480;28;20530;-75
2022/12/04 11:15:21;;;;;;;31.90;18.20;;;;;;;;;;5064195;28;20491;-74
2022/12/04 11:17:48;;;;;;;24.03;16.17;;;;;;;;;;5071699;28;20444;-75
2022/12/04 11:20:18;;;;;;;28.53;18.70;;;;;;;;;;5071044;28;20457;-75
2022/12/04 11:22:50;;;;;;;26.30;17.17;;;;;;;;;;5071275;28;20946;-76
2022/12/04 11:25:19;;;;;;;24.50;17.90;;;;;;;;;;5065643;28;20458;-73
2022/12/04 11:27:47;;;;;;;26.23;18.40;;;;;;;;;;5060917;28;20445;-74
2022/12/04 11:30:16;;;;;;;27.77;17.87;;;;;;;;;;5080326;28;20443;-74
2022/12/04 11:32:45;;;;;;;25.60;17.00;;;;;;;;;;5094212;28;20429;-74
2022/12/04 11:35:13;;;;;;;24.00;16.70;;;;;;;;;;5093727;28;20467;-75
2022/12/04 11:37:42;;;;;;;27.63;18.00;;;;;;;;;;5092279;28;20929;-74
2022/12/04 11:40:17;;;;;;;23.00;16.00;;;;;;;;;;5092620;28;20961;-75
2022/12/04 11:42:44;;;;;;;23.63;16.50;;;;;;;;;;5092138;28;20478;-74
2022/12/04 11:45:20;;;;;;;25.40;16.20;;;;;;;;;;5093462;28;21004;-74
2022/12/04 11:47:54;;;;;;;23.57;16.77;;;;;;;;;;5096740;28;21126;-73
2022/12/04 11:50:27;;;;;;;24.37;15.70;;;;;;;;;;5093017;28;20868;-75
2022/12/04 11:53:01;;;;;;;27.80;15.83;;;;;;;;;;5094153;28;20418;-73
2022/12/04 11:55:32;;;;;;;22.77;15.30;;;;;;;;;;5095686;28;20465;-76
2022/12/04 11:58:06;;;;;;;21.93;15.97;;;;;;;;;;5079214;28;20456;-75
2022/12/04 12:00:38;;;;;;;21.97;16.60;;;;;;;;;;5064610;28;20437;-75
2022/12/04 12:03:14;;;;;;;23.23;17.50;;;;;;;;;;5070835;28;20492;-75
2022/12/04 12:05:52;;;;;;;23.23;16.80;;;;;;;;;;5073144;28;20470;-74
2022/12/04 12:08:24;;;;;;;23.53;16.40;;;;;;;;;;5064093;28;20450;-74
2022/12/04 12:10:58;;;;;;;24.47;16.60;;;;;;;;;;5069352;28;20448;-75
2022/12/04 12:13:29;;;;;;;22.57;15.30;;;;;;;;;;5070767;28;20427;-75
2022/12/04 12:16:01;;;;;;;25.50;15.30;;;;;;;;;;5084253;28;20465;-74
2022/12/04 12:18:38;;;;;;;22.70;15.53;;;;;;;;;;5093722;28;20429;-74
2022/12/04 12:21:06;;;;;;;24.20;16.47;;;;;;;;;;5094699;28;20496;-74
2022/12/04 12:23:52;;;;;;;24.43;17.20;;;;;;;;;;5085763;28;20490;-76
2022/12/04 12:26:21;;;;;;;22.50;16.73;;;;;;;;;;5084201;28;20477;-74
2022/12/04 12:29:00;;;;;;;22.07;15.70;;;;;;;;;;5072687;28;20538;-74
2022/12/04 12:31:37;;;;;;;24.77;15.73;;;;;;;;;;5072891;28;20437;-75
2022/12/04 12:34:05;;;;;;;23.60;17.30;;;;;;;;;;5071934;28;21147;-75
2022/12/04 12:36:35;;;;;;;26.37;16.77;;;;;;;;;;5071634;28;20571;-76
2022/12/04 12:39:05;;;;;;;25.00;17.30;;;;;;;;;;5072288;28;20438;-75
2022/12/04 12:41:36;;;;;;;25.60;17.57;;;;;;;;;;5073741;28;20433;-75
2022/12/04 12:44:04;;;;;;;23.43;16.70;;;;;;;;;;5071210;28;20428;-76
2022/12/04 12:46:38;;;;;;;24.23;16.03;;;;;;;;;;5076214;28;20478;-74
2022/12/04 12:49:09;;;;;;;25.07;17.70;;;;;;;;;;5064337;28;20431;-74
2022/12/04 12:51:38;;;;;;;21.53;16.40;;;;;;;;;;5071788;28;20457;-74
2022/12/04 12:54:12;;;;;;;26.53;17.80;;;;;;;;;;5072717;28;20441;-74
2022/12/04 12:56:42;;;;;;;24.03;15.93;;;;;;;;;;5095070;28;20411;-74
2022/12/04 12:59:12;;;;;;;28.97;17.77;;;;;;;;;;5096795;28;20598;-72
2022/12/04 13:01:44;;;;;;;23.63;16.23;;;;;;;;;;5096200;28;20471;-74
2022/12/04 13:04:13;;;;;;;28.40;17.30;;;;;;;;;;5092034;28;20774;-74
2022/12/04 13:06:42;;;;;;;25.67;16.80;;;;;;;;;;5087996;28;20469;-76
2022/12/04 13:09:14;;;;;;;22.93;17.60;;;;;;;;;;5076900;28;20443;-76
2022/12/04 13:11:44;;;;;;;28.10;17.20;;;;;;;;;;5082803;28;20453;-75
2022/12/04 13:14:12;;;;;;;22.77;17.00;;;;;;;;;;5080309;28;20450;-75
2022/12/04 13:16:42;;;;;;;22.00;15.40;;;;;;;;;;5070785;28;20440;-76
2022/12/04 13:19:14;;;;;;;21.20;14.50;;;;;;;;;;5070765;28;20449;-76
2022/12/04 13:21:45;;;;;;;22.03;15.00;;;;;;;;;;5070912;28;20450;-76
2022/12/04 13:24:25;;;;;;;19.20;14.83;;;;;;;;;;5070527;28;20451;-74
2022/12/04 13:26:57;;;;;;;22.60;15.67;;;;;;;;;;5071088;28;20433;-74
2022/12/04 13:29:31;;;;;;;21.73;15.20;;;;;;;;;;5071533;28;20497;-76
2022/12/04 13:32:03;;;;;;;21.57;14.47;;;;;;;;;;5066687;28;20583;-75
2022/12/04 13:34:42;;;;;;;19.73;14.47;;;;;;;;;;5069254;28;20918;-73
2022/12/04 13:37:19;;;;;;;20.30;14.97;;;;;;;;;;5071444;28;20447;-74
2022/12/04 13:40:09;;;;;;;24.10;16.30;;;;;;;;;;5070073;28;20439;-75
2022/12/04 13:42:38;;;;;;;20.97;15.63;;;;;;;;;;5065051;28;20485;-75
2022/12/04 13:45:08;;;;;;;19.90;14.37;;;;;;;;;;5076623;28;20467;-74
2022/12/04 13:47:36;;;;;;;20.70;14.30;;;;;;;;;;5076965;28;20447;-75
2022/12/04 13:50:07;;;;;;;20.20;14.77;;;;;;;;;;5075855;28;20447;-74
2022/12/04 13:52:39;;;;;;;22.20;14.20;;;;;;;;;;5075855;28;20444;-74
2022/12/04 13:55:21;;;;;;;21.60;15.60;;;;;;;;;;5074739;28;20471;-74
2022/12/04 13:57:54;;;;;;;20.17;15.57;;;;;;;;;;5075228;28;20446;-74
2022/12/04 14:00:26;;;;;;;23.50;14.87;;;;;;;;;;5074064;28;20429;-75
2022/12/04 14:02:55;;;;;;;19.80;13.40;;;;;;;;;;5073063;28;20487;-75
2022/12/04 14:05:26;;;;;;;19.87;13.63;;;;;;;;;;5073723;28;20479;-74
2022/12/04 14:07:59;;;;;;;20.50;13.73;;;;;;;;;;5073995;28;20438;-74
2022/12/04 14:10:28;;;;;;;18.70;14.07;;;;;;;;;;5073395;28;20570;-75
2022/12/04 14:12:59;;;;;;;17.70;13.57;;;;;;;;;;5072043;28;20447;-75
2022/12/04 14:15:28;;;;;;;20.27;13.23;;;;;;;;;;5072959;28;20502;-74
2022/12/04 14:18:00;;;;;;;20.23;13.80;;;;;;;;;;5072496;28;20465;-75
2022/12/04 14:20:28;;;;;;;18.57;14.80;;;;;;;;;;5073399;28;20439;-74
2022/12/04 14:22:55;;;;;;;18.17;13.60;;;;;;;;;;5073785;28;20483;-74
2022/12/04 14:25:25;;;;;;;19.70;13.67;;;;;;;;;;5067235;28;20484;-74
2022/12/04 14:27:53;;;;;;;18.47;12.93;;;;;;;;;;5069582;28;20452;-75
2022/12/04 14:30:23;;;;;;;19.87;13.57;;;;;;;;;;5076026;28;20444;-74
2022/12/04 14:32:51;;;;;;;17.13;13.70;;;;;;;;;;5077607;28;20447;-73
2022/12/04 14:35:19;;;;;;;24.20;14.60;;;;;;;;;;5079161;28;20473;-74
2022/12/04 14:37:50;;;;;;;20.20;12.60;;;;;;;;;;5073308;28;20456;-75
2022/12/04 14:40:20;;;;;;;17.53;13.13;;;;;;;;;;5073108;28;20444;-74